Terminal Aerodrome Forecast
Issued by NWS Binghamton, NY

Home | Current Version | Previous Version | Text Only | Print | Product List | Glossary On
Versions: 1 2 3 4 5 6 7 8 9 10 11 12 13 14 15 16 17 18 19 20 21 22 23 24 25 26 27 28
000
FTUS41 KBGM 290253 AAA
TAFAVP
TAF AMD
KAVP 290253Z 2903/2924 35010KT P6SM SCT009 OVC012
      TEMPO 2903/2905 OVC009
     FM291400 34012G22KT P6SM BKN035=

USA.gov is the U.S. government's official web portal to all federal, state and local government web resources and services.